Flight Track Log - Related Links

Times and Time Zones

All times are in EDT time to prevent confusion due to time zone crossing. See the EJA396 flight status page for this flight to view local times or setup timezone preferences in your user account.

Time Position Orientation Groundspeed Altitude Reporting Facility
EDT Latitude Longitude Course Direction KTS MPH feet Rate Location/Type
Wed 05:00:24 PM 36.9014 -76.1972 34° Northeast 142 163 1,100  Level Washington Center
Wed 05:01:39 PM 36.9622 -76.1456 34° Northeast 273 314 4,000 2,457 Climbing Washington Center
Wed 05:02:31 PM 36.9953 -76.2031 306° West 266 306 6,300 2,762 Climbing Washington Center
Wed 05:03:45 PM 36.9906 -76.3175 267° West 280 322 9,800 1,950 Climbing Washington Center
Wed 05:04:31 PM 36.9858 -76.3822 265° West 347 399 10,200 2,214 Climbing Washington Center
Wed 05:05:28 PM 36.9456 -76.4886 245° Southwest 360 414 13,600 3,538 Climbing Washington Center
Wed 05:06:28 PM 36.8989 -76.5919 241° Southwest 350 403 17,100 3,025 Climbing Washington Center
Wed 05:07:29 PM 36.8519 -76.7003 242° Southwest 355 409 19,700 2,579 Climbing Washington Center
Wed 05:08:29 PM 36.8028 -76.8086 240° Southwest 355 409 22,300 2,350 Climbing Washington Center
Wed 05:09:29 PM 36.7558 -76.9167 242° Southwest 360 414 24,400 1,884 Climbing Washington Center
Wed 05:10:30 PM 36.7006 -77.0219 237° Southwest 365 420 26,100 1,488 Climbing Washington Center
Wed 05:11:30 PM 36.6222 -77.1008 219° Southwest 360 414 27,400 966 Climbing Washington Center
Wed 05:12:28 PM 36.5358 -77.1792 216° Southwest 371 427 28,000 1,169 Climbing Washington Center
Wed 05:13:28 PM 36.4489 -77.2653 219° Southwest 390 449 29,700 1,785 Climbing Washington Center
Wed 05:14:29 PM 36.3644 -77.3433 217° Southwest 400 460 31,600 1,398 Climbing Washington Center
Wed 05:15:41 PM 36.2839 -77.4189 217° Southwest 380 437 32,800 992 Climbing Washington Center
Wed 05:16:42 PM 36.1886 -77.5094 218° Southwest 358 412 33,800 893 Climbing Washington Center
Wed 05:17:42 PM 36.1103 -77.5844 218° Southwest 351 404 34,600 915 Climbing Washington Center
Wed 05:18:40 PM 36.0256 -77.6619 217° Southwest 364 419 35,600 712 Climbing Washington Center
Wed 05:19:40 PM 35.9425 -77.7469 220° Southwest 379 436 36,000 198 Climbing Washington Center
Wed 05:20:41 PM 35.8594 -77.8422 223° Southwest 389 448 36,000 298 Level Washington Center
Wed 05:21:41 PM 35.7786 -77.9319 222° Southwest 399 459 36,600 793 Climbing Washington Center
Wed 05:22:42 PM 35.6994 -78.0244 224° Southwest 399 459 37,600 787 Climbing Washington Center
Wed 05:23:43 PM 35.6183 -78.1139 222° Southwest 399 459 38,200 814 Climbing Washington Center
Wed 05:24:40 PM 35.5369 -78.2058 223° Southwest 399 459 39,200 763 Climbing Washington Center
Wed 05:25:41 PM 35.4814 -78.2653 221° Southwest 394 453 39,700 393 Climbing Washington Center
Wed 05:26:42 PM 35.3831 -78.3714 221° Southwest 394 453 40,000 151 Climbing Washington Center
Wed 05:27:40 PM 35.3058 -78.4631 224° Southwest 394 453 40,000  Level Washington Center
Wed 05:28:41 PM 35.2306 -78.5519 224° Southwest 389 448 40,000  Level Washington Center
Wed 05:29:42 PM 35.1556 -78.6356 222° Southwest 376 433 40,000  Level Washington Center
Wed 05:30:43 PM 35.0825 -78.7189 223° Southwest 376 433 40,000  Level Washington Center
Wed 05:31:40 PM 35.0072 -78.8022 222° Southwest 370 426 40,000  Level Washington Center
Wed 05:32:41 PM 34.9339 -78.8856 223° Southwest 370 426 40,000  Level Washington Center
Wed 05:33:42 PM 34.8586 -78.9683 222° Southwest 365 420 40,000  Level Washington Center
Wed 05:34:42 PM 34.7853 -79.0514 223° Southwest 365 420 40,000  Level Washington Center
Wed 05:35:43 PM 34.7119 -79.1342 223° Southwest 365 420 40,000  Level Washington Center
Wed 05:38:00 PM 34.5228 -79.3394 222° Southwest 361 415 40,000  Level Jacksonville Center
Wed 05:39:00 PM 34.4414 -79.4131 217° Southwest 369 425 40,000  Level Jacksonville Center
Wed 05:40:00 PM 34.3469 -79.4647 204° Southwest 369 425 40,000  Level Jacksonville Center
Wed 05:41:00 PM 34.2664 -79.5006 200° South 375 432 40,000  Level Jacksonville Center
Wed 05:42:00 PM 34.1533 -79.5553 202° Southwest 375 432 40,000  Level Jacksonville Center
Wed 05:43:00 PM 34.0522 -79.6017 201° Southwest 381 438 40,000  Level Jacksonville Center
Wed 05:44:00 PM 33.9511 -79.6481 201° Southwest 386 444 40,000  Level Jacksonville Center
Wed 05:45:00 PM 33.8522 -79.6967 202° Southwest 386 444 40,000  Level Jacksonville Center
Wed 05:46:00 PM 33.7533 -79.7453 202° Southwest 386 444 40,000  Level Jacksonville Center
Wed 05:47:00 PM 33.6503 -79.7914 200° South 391 450 40,000  Level Jacksonville Center
Wed 05:48:00 PM 33.5511 -79.8397 202° Southwest 391 450 40,000 500 Level Jacksonville Center
Wed 05:49:00 PM 33.4519 -79.8853 201° Southwest 391 450 41,000 1,000 Climbing Jacksonville Center
Wed 05:50:00 PM 33.3531 -79.9286 200° South 391 450 42,000 950 Climbing Jacksonville Center
Wed 05:51:00 PM 33.2539 -79.9742 201° Southwest 391 450 42,900 500 Climbing Jacksonville Center
Wed 05:52:00 PM 33.1547 -80.0194 201° Southwest 391 450 43,000 200 Climbing Jacksonville Center
Wed 05:53:00 PM 33.0492 -80.0650 200° South 391 450 43,300 650 Climbing Jacksonville Center
Wed 05:54:00 PM 32.9392 -80.0883 190° South 396 456 44,300 850 Climbing Jacksonville Center
Wed 05:55:00 PM 32.8333 -80.1161 192° South 396 456 45,000 350 Climbing Jacksonville Center
Wed 05:56:00 PM 32.7356 -80.1367 190° South 396 456 45,000  Level Jacksonville Center
Wed 05:57:00 PM 32.6256 -80.1597 190° South 396 456 45,000  Level Jacksonville Center
Wed 05:58:00 PM 32.5181 -80.2097 201° Southwest 407 468 45,000  Level Jacksonville Center
Wed 05:59:00 PM 32.4128 -80.2644 204° Southwest 414 476 45,000  Level Jacksonville Center
Wed 06:00:00 PM 32.3075 -80.3192 204° Southwest 420 483 45,000  Level Jacksonville Center
Wed 06:01:00 PM 32.2000 -80.3761 204° Southwest 420 483 45,000  Level Jacksonville Center
Wed 06:02:00 PM 32.0925 -80.4306 203° Southwest 420 483 45,000  Level Jacksonville Center
Wed 06:03:00 PM 31.9789 -80.4900 204° Southwest 408 470 45,000  Level Jacksonville Center
Wed 06:04:00 PM 31.8625 -80.5222 193° South 422 486 45,000  Level Jacksonville Center
Wed 06:05:00 PM 31.7606 -80.5469 192° South 427 491 45,000  Level Jacksonville Center
Wed 06:06:00 PM 31.6339 -80.5769 191° South 427 491 45,000  Level Jacksonville Center
Wed 06:07:00 PM 31.5300 -80.6014 191° South 427 491 45,000  Level Jacksonville Center
Wed 06:08:00 PM 31.4156 -80.6311 192° South 427 491 45,000  Level Jacksonville Center
Wed 06:09:00 PM 31.2992 -80.6558 190° South 427 491 45,000  Level Jacksonville Center
Wed 06:10:00 PM 31.1847 -80.6828 191° South 427 491 45,000  Level Jacksonville Center
Wed 06:11:00 PM 31.0725 -80.7119 193° South 427 491 45,000  Level Jacksonville Center
Wed 06:12:00 PM 30.9539 -80.7367 190° South 427 491 45,000  Level Jacksonville Center
Wed 06:13:00 PM 30.8394 -80.7561 188° South 427 491 45,000  Level Jacksonville Center
Wed 06:14:00 PM 30.7242 -80.7347 171° South 414 476 45,000  Level Jacksonville Center
Wed 06:15:00 PM 30.6028 -80.7133 171° South 427 491 45,000  Level Jacksonville Center
Wed 06:16:00 PM 30.4833 -80.6894 170° South 432 497 45,000  Level Jacksonville Center
Wed 06:17:00 PM 30.3619 -80.6706 172° South 437 503 45,000  Level Jacksonville Center
Wed 06:18:00 PM 30.2428 -80.6517 172° South 437 503 45,000  Level Jacksonville Center
Wed 06:19:00 PM 30.1233 -80.6328 172° South 437 503 45,000 -950 Level Jacksonville Center
Wed 06:20:00 PM 29.9997 -80.6142 173° South 442 509 43,100 -1,950 Descending Jacksonville Center
Wed 06:21:00 PM 29.8806 -80.5978 173° South 447 514 41,100 -2,000 Descending Jacksonville Center
Wed 06:22:00 PM 29.7636 -80.5911 177° South 442 509 39,100 -2,000 Descending Jacksonville Center
Wed 06:23:00 PM 29.6531 -80.5958 182° South 417 480 37,100 -1,550 Descending Jacksonville Center
Wed 06:24:00 PM 29.5403 -80.6033 183° South 406 467 36,000 -478 Descending Jacksonville Center
Wed 06:25:18 PM 29.4017 -80.5861 174° South 415 478 36,000  Level Miami Center
Wed 06:26:18 PM 29.2897 -80.5631 170° South 415 478 36,000  Level Miami Center
Wed 06:27:18 PM 29.1800 -80.5333 167° South 415 478 36,000  Level Miami Center
Wed 06:28:18 PM 29.0617 -80.5056 168° South 420 483 36,000  Level Miami Center
Wed 06:29:18 PM 28.9417 -80.4756 168° South 430 495 36,000 -650 Level Miami Center
Wed 06:30:18 PM 28.8067 -80.4450 169° South 444 511 34,700 -1,600 Descending Miami Center
Wed 06:31:18 PM 28.6864 -80.4200 170° South 449 517 32,800 -1,500 Descending Miami Center
Wed 06:32:18 PM 28.5764 -80.3928 168° South 449 517 31,700 -1,650 Descending Miami Center
Wed 06:33:18 PM 28.4519 -80.3653 169° South 449 517 29,500 -2,400 Descending Miami Center
Wed 06:34:18 PM 28.3233 -80.3353 168° South 449 517 26,900 -2,400 Descending Miami Center
Wed 06:35:18 PM 28.2069 -80.3081 168° South 443 510 24,700 -1,450 Descending Miami Center
Wed 06:36:18 PM 28.1019 -80.2508 154° Southeast 428 493 24,000 -350 Descending Miami Center
Wed 06:37:18 PM 28.0094 -80.1964 153° Southeast 412 474 24,000 -800 Level Miami Center
Wed 06:38:18 PM 27.8947 -80.1836 174° South 412 474 22,400 -2,000 Descending Miami Center
Wed 06:39:18 PM 27.7844 -80.1733 175° South 417 480 20,000 -2,350 Descending Miami Center
Wed 06:40:18 PM 27.6739 -80.1653 176° South 382 440 17,700 -2,250 Descending Miami Center
Wed 06:41:18 PM 27.5697 -80.1578 176° South 375 432 15,500 -2,150 Descending Miami Center
Wed 06:42:18 PM 27.4781 -80.1503 176° South 370 426 13,400 -2,100 Descending Miami Center
Wed 06:43:18 PM 27.3781 -80.1406 175° South 364 419 11,300 -1,700 Descending Miami Center
Wed 06:44:18 PM 27.2864 -80.1356 177° South 327 376 10,000 -1,300 Descending Miami Center
Wed 06:45:18 PM 27.2050 -80.1286 176° South 304 350 8,700 -1,650 Descending Miami Center
Wed 06:46:18 PM 27.1278 -80.1217 175° South 284 327 6,700 -1,850 Descending Miami Center
Wed 06:47:18 PM 27.0633 -80.1175 177° South 271 312 5,000 -850 Descending Miami Center
Wed 06:48:18 PM 26.9800 -80.1106 176° South 271 312 5,000  Level Miami Center
Wed 06:49:18 PM 26.9069 -80.1064 177° South 271 312 5,000  Level Miami Center
Wed 06:50:18 PM 26.8339 -80.0997 175° South 265 305 5,000  Level Miami Center
Wed 06:51:18 PM 26.7569 -80.0928 175° South 278 320 5,000  Level Miami Center
Wed 06:53:00 PM 26.5864 -80.1167 180° South  Level FlightAware Approximate
Wed 07:00:00 PM 26.3785 -80.1077 180° South  Level Estimated
Wed 07:01:00 PM 26.3785 -80.1077 180° South  Level Estimated
Wed 07:02:00 PM 26.3785 -80.1077 180° South  Level Estimated
Wed 07:03:00 PM 26.3785 -80.1077 180° South  Level Estimated
Wed 07:04:00 PM 26.3785 -80.1077 180° South  Level Estimated
Wed 07:05:00 PM 26.3785 -80.1077 180° South  Level Estimated
Wed 07:06:00 PM 26.3785 -80.1077 180° South  Level Estimated
Wed 07:07:00 PM 26.3785 -80.1077 180° South  Level Estimated

Login

Don't have an account? Register now (free) for customized features, flight alerts, and more!